createdAt,value
2018-12-01T00:01:19.400Z,-1.77
2018-12-01T00:03:49.302Z,-1.77
2018-12-01T00:06:19.321Z,-1.78
2018-12-01T00:08:49.111Z,-1.78
2018-12-01T00:11:19.021Z,-1.79
2018-12-01T00:13:48.884Z,-1.78
2018-12-01T00:16:18.718Z,-1.78
2018-12-01T00:18:48.685Z,-1.77
2018-12-01T00:21:19.092Z,-1.72
2018-12-01T00:23:49.242Z,-1.69
2018-12-01T00:26:18.922Z,-1.63
2018-12-01T00:28:48.798Z,-1.59
2018-12-01T00:31:18.631Z,-1.62
2018-12-01T00:33:48.528Z,-1.64
2018-12-01T00:36:18.489Z,-1.62
2018-12-01T00:38:48.410Z,-1.63
2018-12-01T00:41:18.255Z,-1.85
2018-12-01T00:43:48.172Z,-1.62
2018-12-01T00:46:18.320Z,-1.64
2018-12-01T00:48:48.249Z,-1.65
2018-12-01T00:51:18.268Z,-1.69
2018-12-01T00:53:48.082Z,-1.69
2018-12-01T00:56:17.979Z,-1.69
2018-12-01T00:58:47.868Z,-1.64
2018-12-01T01:01:17.784Z,-1.66
2018-12-01T01:03:47.649Z,-1.68
2018-12-01T01:06:18.679Z,-1.68
2018-12-01T01:08:48.566Z,-1.70
2018-12-01T01:11:18.473Z,-1.71
2018-12-01T01:13:48.409Z,-1.70
2018-12-01T01:16:18.344Z,-1.72
2018-12-01T01:18:48.228Z,-1.74
2018-12-01T01:21:18.060Z,-1.76
2018-12-01T01:23:47.879Z,-1.75
2018-12-01T01:26:17.747Z,-1.67
2018-12-01T01:28:47.651Z,-1.67
2018-12-01T01:31:17.440Z,-1.65
2018-12-01T01:33:47.277Z,-1.64
2018-12-01T01:36:17.157Z,-1.65
2018-12-01T01:38:47.031Z,-1.67
2018-12-01T01:41:16.901Z,-1.71
2018-12-01T01:43:46.860Z,-1.75
2018-12-01T01:46:16.784Z,-1.74
2018-12-01T01:48:46.647Z,-1.71
2018-12-01T01:51:16.512Z,-1.69
2018-12-01T01:53:46.320Z,-1.72
2018-12-01T01:56:16.192Z,-1.69
2018-12-01T01:58:46.092Z,-1.67
2018-12-01T02:01:15.902Z,-1.68
2018-12-01T02:03:45.800Z,-1.68
2018-12-01T02:06:15.696Z,-1.70
2018-12-01T02:08:45.548Z,-1.68
2018-12-01T02:11:15.300Z,-1.68
2018-12-01T02:13:45.204Z,-1.69
2018-12-01T02:16:15.088Z,-1.64
2018-12-01T02:18:44.976Z,-1.66
2018-12-01T02:21:14.848Z,-1.70
2018-12-01T02:23:44.685Z,-1.69
2018-12-01T02:26:14.508Z,-1.69
2018-12-01T02:28:44.400Z,-1.66
2018-12-01T02:31:14.238Z,-1.68
2018-12-01T02:33:44.140Z,-1.69
2018-12-01T02:36:14.109Z,-1.69
2018-12-01T02:38:44.003Z,-1.68
2018-12-01T02:41:13.825Z,-1.66
2018-12-01T02:43:43.795Z,-1.70
2018-12-01T02:46:24.417Z,-1.72
2018-12-01T02:48:54.326Z,-1.70
2018-12-01T02:51:24.181Z,-1.72
2018-12-01T02:53:53.997Z,-1.70
2018-12-01T02:56:23.909Z,-1.71
2018-12-01T02:58:53.703Z,-1.69
2018-12-01T03:01:23.539Z,-1.71
2018-12-01T03:03:53.435Z,-1.73
2018-12-01T03:06:23.336Z,-1.72
2018-12-01T03:08:53.388Z,-1.72
2018-12-01T03:11:23.137Z,-1.70
2018-12-01T03:13:52.932Z,-1.69
2018-12-01T03:16:22.752Z,-1.72
2018-12-01T03:18:52.651Z,-1.71
2018-12-01T03:21:22.432Z,-1.68
2018-12-01T03:23:52.608Z,-1.67
2018-12-01T03:26:22.440Z,-1.64
2018-12-01T03:28:53.508Z,-1.61
2018-12-01T03:31:23.281Z,-1.59
2018-12-01T03:33:53.401Z,-1.62
2018-12-01T03:36:23.209Z,-1.61
2018-12-01T03:38:53.256Z,-1.64
2018-12-01T03:41:23.017Z,-1.66
2018-12-01T03:43:52.805Z,-1.67
2018-12-01T03:46:22.651Z,-2.32
2018-12-01T03:48:52.488Z,-1.62
2018-12-01T03:51:22.280Z,-1.60
2018-12-01T03:53:52.056Z,-1.59
2018-12-01T03:56:21.940Z,-1.54
2018-12-01T03:58:51.740Z,-1.53
2018-12-01T04:01:21.480Z,-1.54
2018-12-01T04:03:51.368Z,-1.52
2018-12-01T04:06:21.190Z,-1.52
2018-12-01T04:08:51.210Z,-1.57
2018-12-01T04:11:21.357Z,-1.59
2018-12-01T04:13:51.704Z,-1.64
2018-12-01T04:16:21.539Z,-1.66
2018-12-01T04:18:51.340Z,-1.68
2018-12-01T04:21:21.070Z,-1.60
2018-12-01T04:23:51.307Z,-1.55
2018-12-01T04:26:22.286Z,-1.56
2018-12-01T04:28:52.618Z,-1.52
2018-12-01T04:31:22.219Z,-1.49
2018-12-01T04:33:51.919Z,-1.49
2018-12-01T04:36:22.040Z,-1.51
2018-12-01T04:38:51.908Z,-1.53
2018-12-01T04:41:21.688Z,-1.38
2018-12-01T04:43:51.531Z,-1.18
2018-12-01T04:46:21.413Z,-0.99
2018-12-01T04:48:51.232Z,-0.80
2018-12-01T04:51:21.906Z,-0.72
2018-12-01T04:53:51.634Z,-0.69
2018-12-01T04:56:21.598Z,-0.75
2018-12-01T04:58:51.683Z,-0.87
2018-12-01T05:01:21.807Z,-1.23
2018-12-01T05:03:51.771Z,-1.08
2018-12-01T05:06:21.849Z,-1.15
2018-12-01T05:08:52.399Z,-1.20
2018-12-01T05:11:22.617Z,-1.26
2018-12-01T05:13:52.416Z,-1.28
2018-12-01T05:16:22.687Z,-1.30
2018-12-01T05:18:52.510Z,-1.35
2018-12-01T05:21:22.176Z,-1.34
2018-12-01T05:23:51.908Z,-1.33
2018-12-01T05:26:21.737Z,-1.39
2018-12-01T05:28:52.443Z,-1.39
2018-12-01T05:31:23.066Z,-1.43
2018-12-01T05:33:52.711Z,-1.45
2018-12-01T05:36:23.024Z,-1.45
2018-12-01T05:38:52.720Z,-1.47
2018-12-01T05:41:23.737Z,-1.48
2018-12-01T05:43:53.880Z,-1.47
2018-12-01T05:46:23.867Z,-1.49
2018-12-01T05:48:53.643Z,-1.47
2018-12-01T05:51:24.670Z,-1.49
2018-12-01T05:53:55.440Z,-1.47
2018-12-01T05:56:25.259Z,-1.47
2018-12-01T05:58:55.633Z,-1.47
2018-12-01T06:01:25.333Z,-1.45
2018-12-01T06:03:55.434Z,-1.44
2018-12-01T06:06:25.151Z,-2.85
2018-12-01T06:08:54.946Z,-1.44
2018-12-01T06:11:25.261Z,-1.48
2018-12-01T06:13:54.992Z,-1.44
2018-12-01T06:16:24.796Z,-1.44
2018-12-01T06:18:55.421Z,-1.48
2018-12-01T06:21:25.204Z,-1.49
2018-12-01T06:23:55.004Z,-1.50
2018-12-01T06:26:24.951Z,-1.49
2018-12-01T06:28:54.731Z,-1.48
2018-12-01T06:31:24.418Z,-1.51
2018-12-01T06:33:54.196Z,-1.48
2018-12-01T06:36:24.002Z,-1.47
2018-12-01T06:38:54.843Z,-1.48
2018-12-01T06:41:24.643Z,-1.49
2018-12-01T06:43:55.343Z,-1.46
2018-12-01T06:46:25.172Z,-1.46
2018-12-01T06:48:55.001Z,-1.43
2018-12-01T06:51:24.752Z,-1.42
2018-12-01T06:53:54.493Z,-1.40
2018-12-01T06:56:24.701Z,-1.38
2018-12-01T06:58:54.530Z,-1.36
2018-12-01T07:01:24.595Z,-1.30
2018-12-01T07:03:54.293Z,-1.29
2018-12-01T07:06:24.462Z,-1.29
2018-12-01T07:08:54.680Z,-1.25
2018-12-01T07:11:24.364Z,-1.23
2018-12-01T07:13:54.134Z,-1.20
2018-12-01T07:16:24.321Z,-1.16
2018-12-01T07:19:19.157Z,-1.14
2018-12-01T07:21:49.552Z,-1.12
2018-12-01T07:24:19.304Z,-1.05
2018-12-01T07:26:49.162Z,-0.96
2018-12-01T07:29:19.026Z,-0.91
2018-12-01T07:31:48.987Z,-0.88
2018-12-01T07:34:18.819Z,-0.80
2018-12-01T07:36:48.906Z,-0.77
2018-12-01T07:39:19.436Z,-0.76
2018-12-01T07:41:49.362Z,-0.73
2018-12-01T07:44:19.444Z,-0.66
2018-12-01T07:46:49.528Z,-0.64
2018-12-01T07:49:19.368Z,-0.67
2018-12-01T07:51:50.328Z,-0.61
2018-12-01T07:54:20.123Z,-0.59
2018-12-01T07:56:49.869Z,-0.58
2018-12-01T07:59:19.828Z,-0.48
2018-12-01T08:01:50.304Z,-0.41
2018-12-01T08:04:20.696Z,-0.32
2018-12-01T08:06:50.509Z,-0.23
2018-12-01T08:09:20.853Z,-0.13
2018-12-01T08:11:51.057Z,-0.02
2018-12-01T08:14:21.281Z,0.10
2018-12-01T08:16:51.289Z,0.18
2018-12-01T08:19:21.474Z,0.25
2018-12-01T08:21:51.094Z,0.35
2018-12-01T08:24:21.366Z,0.49
2018-12-01T08:26:51.156Z,-1.55
2018-12-01T08:29:21.179Z,0.68
2018-12-01T08:31:50.898Z,0.76
2018-12-01T08:34:20.647Z,0.71
2018-12-01T08:36:50.392Z,0.65
2018-12-01T08:39:20.107Z,0.62
2018-12-01T08:41:50.875Z,0.57
2018-12-01T08:44:20.647Z,0.58
2018-12-01T08:46:51.516Z,0.55
2018-12-01T08:49:22.522Z,0.53
2018-12-01T08:51:52.251Z,0.14
2018-12-01T08:54:22.522Z,0.55
2018-12-01T08:56:52.817Z,0.59
2018-12-01T08:59:23.452Z,0.60
2018-12-01T09:01:53.738Z,0.64
2018-12-01T09:04:23.544Z,0.76
2018-12-01T09:06:53.913Z,0.89
2018-12-01T09:09:23.690Z,0.92
2018-12-01T09:11:53.585Z,1.11
2018-12-01T09:14:23.388Z,1.26
2018-12-01T09:16:53.344Z,1.40
2018-12-01T09:19:23.424Z,1.41
2018-12-01T09:21:54.065Z,1.35
2018-12-01T09:24:24.193Z,1.48
2018-12-01T09:26:54.078Z,1.62
2018-12-01T09:29:24.410Z,1.60
2018-12-01T09:31:54.402Z,1.66
2018-12-01T09:34:24.532Z,1.73
2018-12-01T09:36:54.323Z,1.79
2018-12-01T09:39:24.472Z,1.77
2018-12-01T09:41:54.640Z,1.89
2018-12-01T09:44:24.737Z,2.04
2018-12-01T09:46:54.571Z,2.21
2018-12-01T09:49:24.689Z,2.40
2018-12-01T09:51:54.728Z,2.53
2018-12-01T09:54:24.940Z,2.47
2018-12-01T09:56:54.835Z,2.46
2018-12-01T09:59:25.069Z,2.55
2018-12-01T10:01:55.611Z,2.61
2018-12-01T10:04:25.486Z,2.59
2018-12-01T10:06:55.728Z,2.60
2018-12-01T10:09:25.941Z,2.57
2018-12-01T10:11:55.752Z,2.55
2018-12-01T10:14:25.729Z,2.43
2018-12-01T10:16:55.668Z,1.92
2018-12-01T10:19:25.833Z,2.26
2018-12-01T10:21:55.778Z,2.32
2018-12-01T10:24:25.898Z,2.46
2018-12-01T10:26:56.034Z,2.52
2018-12-01T10:29:25.923Z,2.52
2018-12-01T10:31:55.791Z,2.46
2018-12-01T10:34:25.700Z,2.47
2018-12-01T10:36:55.843Z,2.50
2018-12-01T10:39:26.501Z,2.53
2018-12-01T10:41:56.291Z,2.62
2018-12-01T10:44:26.591Z,2.87
2018-12-01T10:46:57.120Z,2.85
2018-12-01T10:49:26.963Z,2.89
2018-12-01T10:51:57.728Z,3.04
2018-12-01T10:54:29.004Z,3.13
2018-12-01T10:56:58.915Z,3.26
2018-12-01T10:59:29.213Z,3.17
2018-12-01T11:02:04.232Z,3.19
2018-12-01T11:04:40.250Z,3.22
2018-12-01T11:07:10.169Z,3.24
2018-12-01T11:09:40.310Z,3.21
2018-12-01T11:12:10.440Z,3.28
2018-12-01T11:14:40.694Z,3.12
2018-12-01T11:17:10.617Z,3.14
2018-12-01T11:19:40.499Z,3.16
2018-12-01T11:22:10.357Z,3.19
2018-12-01T11:24:40.277Z,3.17
2018-12-01T11:27:10.077Z,3.23
2018-12-01T11:29:39.994Z,3.31
2018-12-01T11:32:09.911Z,3.33
2018-12-01T11:34:40.056Z,3.36
2018-12-01T11:37:09.968Z,3.42
2018-12-01T11:39:40.924Z,3.57
2018-12-01T11:42:10.833Z,3.36
2018-12-01T11:44:41.129Z,3.36
2018-12-01T11:47:11.386Z,3.47
2018-12-01T11:49:42.026Z,3.53
2018-12-01T11:52:13.080Z,3.63
2018-12-01T11:54:43.788Z,3.68
2018-12-01T11:57:13.670Z,3.68
2018-12-01T11:59:43.713Z,3.75
2018-12-01T12:02:13.804Z,3.75
2018-12-01T12:04:44.810Z,3.70
2018-12-01T12:07:25.497Z,3.62
2018-12-01T12:09:55.428Z,3.56
2018-12-01T12:12:29.805Z,3.42
2018-12-01T12:14:59.760Z,3.48
2018-12-01T12:17:30.054Z,3.42
2018-12-01T12:19:59.929Z,3.32
2018-12-01T12:22:30.646Z,3.23
2018-12-01T12:25:01.030Z,3.19
2018-12-01T12:27:31.766Z,3.19
2018-12-01T12:30:02.080Z,3.18
2018-12-01T12:32:32.347Z,3.14
2018-12-01T12:35:02.491Z,3.08
2018-12-01T12:37:33.438Z,2.95
2018-12-01T12:40:03.271Z,2.89
2018-12-01T12:42:34.707Z,2.85
2018-12-01T12:45:05.009Z,2.83
2018-12-01T12:47:36.300Z,2.84
2018-12-01T12:50:08.512Z,2.89
2018-12-01T12:52:38.424Z,2.92
2018-12-01T12:55:10.850Z,3.01
2018-12-01T12:57:41.048Z,3.09
2018-12-01T13:00:16.038Z,3.11
2018-12-01T13:02:47.783Z,2.64
2018-12-01T13:05:24.180Z,3.20
2018-12-01T13:07:54.968Z,3.23
2018-12-01T13:10:26.066Z,3.24
2018-12-01T13:12:56.916Z,3.28
2018-12-01T13:15:27.674Z,3.27
2018-12-01T13:17:57.822Z,3.27
2018-12-01T13:20:27.972Z,3.27
2018-12-01T13:22:59.941Z,3.24
2018-12-01T13:25:30.372Z,3.21
2018-12-01T13:28:07.229Z,3.19
2018-12-01T13:30:42.520Z,3.16
2018-12-01T13:33:12.862Z,3.15
2018-12-01T13:35:42.971Z,3.12
2018-12-01T13:38:12.843Z,3.12
2018-12-01T13:40:42.996Z,3.10
2018-12-01T13:43:13.058Z,3.08
2018-12-01T13:45:43.572Z,3.02
2018-12-01T13:48:13.421Z,2.99
2018-12-01T13:50:43.297Z,2.95
2018-12-01T13:53:14.187Z,2.85
2018-12-01T13:55:44.162Z,2.76
2018-12-01T13:58:14.809Z,2.74
2018-12-01T14:00:45.807Z,2.69
2018-12-01T14:03:15.967Z,2.63
2018-12-01T14:05:45.982Z,2.59
2018-12-01T14:08:15.872Z,2.54
2018-12-01T14:10:47.861Z,2.48
2018-12-01T14:13:17.792Z,2.42
2018-12-01T14:15:48.408Z,-0.29
2018-12-01T14:18:18.299Z,2.32
2018-12-01T14:20:48.132Z,2.24
2018-12-01T14:23:18.343Z,2.19
2018-12-01T14:25:49.137Z,2.12
2018-12-01T14:28:20.052Z,2.07
2018-12-01T14:30:49.948Z,2.03
2018-12-01T14:33:20.310Z,1.95
2018-12-01T14:35:50.551Z,1.89
2018-12-01T14:38:20.652Z,1.84
2018-12-01T14:40:51.066Z,1.79
2018-12-01T14:43:21.654Z,1.75
2018-12-01T14:45:51.928Z,1.69
2018-12-01T14:48:21.765Z,1.65
2018-12-01T14:50:52.077Z,1.60
2018-12-01T14:53:21.942Z,1.57
2018-12-01T14:55:52.137Z,1.55
2018-12-01T14:58:22.102Z,1.54
2018-12-01T15:00:52.853Z,1.50
2018-12-01T15:03:22.808Z,1.48
2018-12-01T15:05:52.957Z,1.44
2018-12-01T15:08:22.874Z,1.45
2018-12-01T15:10:52.788Z,1.41
2018-12-01T15:13:23.832Z,1.38
2018-12-01T15:15:53.613Z,1.35
2018-12-01T15:18:23.498Z,1.33
2018-12-01T15:20:53.599Z,1.31
2018-12-01T15:23:23.912Z,1.38
2018-12-01T15:25:53.932Z,1.28
2018-12-01T15:28:23.856Z,1.21
2018-12-01T15:30:54.518Z,1.16
2018-12-01T15:33:24.794Z,1.12
2018-12-01T15:35:54.741Z,1.08
2018-12-01T15:38:24.806Z,1.04
2018-12-01T15:40:55.015Z,1.02
2018-12-01T15:43:25.713Z,0.97
2018-12-01T15:45:55.791Z,0.93
2018-12-01T15:48:25.719Z,0.97
2018-12-01T15:50:56.436Z,0.95
2018-12-01T15:53:26.815Z,0.94
2018-12-01T15:55:57.168Z,0.94
2018-12-01T15:58:27.496Z,0.95
2018-12-01T16:00:57.927Z,0.96
2018-12-01T16:03:27.902Z,1.00
2018-12-01T16:05:57.815Z,1.00
2018-12-01T16:08:29.719Z,0.98
2018-12-01T16:10:59.587Z,0.95
2018-12-01T16:13:29.521Z,0.92
2018-12-01T16:16:06.459Z,0.86
2018-12-01T16:18:36.437Z,0.80
2018-12-01T16:21:08.590Z,0.76
2018-12-01T16:23:38.506Z,0.72
2018-12-01T16:26:08.707Z,0.70
2018-12-01T16:28:39.153Z,0.68
2018-12-01T16:31:09.276Z,0.65
2018-12-01T16:33:39.646Z,0.62
2018-12-01T16:36:10.090Z,0.59
2018-12-01T16:38:39.926Z,0.58
2018-12-01T16:41:28.152Z,0.50
2018-12-01T16:43:57.952Z,0.53
2018-12-01T16:46:29.618Z,0.53
2018-12-01T16:49:00.344Z,0.51
2018-12-01T16:51:31.397Z,0.48
2018-12-01T16:54:01.617Z,0.46
2018-12-01T16:56:31.616Z,0.43
2018-12-01T16:59:01.562Z,0.42
2018-12-01T17:01:32.054Z,0.39
2018-12-01T17:04:02.364Z,0.37
2018-12-01T17:06:32.209Z,0.34
2018-12-01T17:09:02.363Z,0.35
2018-12-01T17:11:33.001Z,0.34
2018-12-01T17:14:02.806Z,0.34
2018-12-01T17:16:32.795Z,0.38
2018-12-01T17:19:02.791Z,0.39
2018-12-01T17:21:32.919Z,0.38
2018-12-01T17:24:03.485Z,0.40
2018-12-01T17:26:33.386Z,0.42
2018-12-01T17:29:03.281Z,-0.88
2018-12-01T17:31:33.545Z,0.47
2018-12-01T17:34:03.476Z,0.53
2018-12-01T17:36:33.418Z,0.57
2018-12-01T17:39:03.561Z,0.63
2018-12-01T17:41:33.441Z,0.66
2018-12-01T17:44:06.583Z,0.69
2018-12-01T17:46:36.819Z,0.68
2018-12-01T17:49:07.612Z,0.68
2018-12-01T17:51:37.466Z,0.67
2018-12-01T17:54:12.860Z,0.67
2018-12-01T17:56:43.744Z,0.67
2018-12-01T17:59:13.800Z,0.64
2018-12-01T18:01:43.680Z,0.58
2018-12-01T18:04:14.556Z,0.52
2018-12-01T18:06:44.840Z,0.47
2018-12-01T18:09:15.736Z,0.44
2018-12-01T18:11:45.979Z,0.39
2018-12-01T18:14:16.208Z,0.35
2018-12-01T18:16:46.359Z,0.29
2018-12-01T18:19:16.362Z,0.24
2018-12-01T18:21:46.311Z,0.17
2018-12-01T18:24:16.202Z,0.14
2018-12-01T18:26:46.134Z,0.07
2018-12-01T18:29:17.580Z,0.05
2018-12-01T18:31:48.231Z,0.04
2018-12-01T18:34:18.080Z,0.03
2018-12-01T18:36:49.226Z,0.03
2018-12-01T18:39:20.028Z,0.03
2018-12-01T18:41:49.856Z,0.02
2018-12-01T18:44:20.324Z,0.01
2018-12-01T18:46:51.207Z,-0.06
2018-12-01T18:49:22.464Z,-0.06
2018-12-01T18:51:53.147Z,-0.09
2018-12-01T18:54:24.279Z,-0.14
2018-12-01T18:56:54.308Z,-0.16
2018-12-01T18:59:24.537Z,-0.19
2018-12-01T19:01:55.087Z,-0.18
2018-12-01T19:04:25.062Z,-0.19
2018-12-01T19:06:55.125Z,0.26
2018-12-01T19:09:25.289Z,0.97
2018-12-01T19:11:55.152Z,1.43
2018-12-01T19:14:25.080Z,1.73
2018-12-01T19:16:55.620Z,1.92
2018-12-01T19:19:26.077Z,1.96
2018-12-01T19:21:56.321Z,1.57
2018-12-01T19:24:26.261Z,0.63
2018-12-01T19:26:56.241Z,1.21
2018-12-01T19:29:26.143Z,1.11
2018-12-01T19:31:56.806Z,0.95
2018-12-01T19:34:28.139Z,0.96
2018-12-01T19:36:58.200Z,0.95
2018-12-01T19:39:28.162Z,1.07
2018-12-01T19:41:57.941Z,1.26
2018-12-01T19:44:27.807Z,1.25
2018-12-01T19:46:58.247Z,1.17
2018-12-01T19:49:28.144Z,0.90
2018-12-01T19:51:58.316Z,0.67
2018-12-01T19:54:28.447Z,0.46
2018-12-01T19:56:58.337Z,0.23
2018-12-01T19:59:28.405Z,0.08
2018-12-01T20:01:58.287Z,-0.03
2018-12-01T20:04:28.163Z,-0.15
2018-12-01T20:06:59.153Z,-0.25
2018-12-01T20:09:29.397Z,-0.31
2018-12-01T20:11:59.719Z,-0.34
2018-12-01T20:14:29.796Z,-0.26
2018-12-01T20:16:59.768Z,-0.23
2018-12-01T20:19:29.920Z,-0.28
2018-12-01T20:21:59.715Z,-0.33
2018-12-01T20:24:29.968Z,-0.39
2018-12-01T20:27:00.550Z,-0.46
2018-12-01T20:29:30.832Z,-0.51
2018-12-01T20:32:01.219Z,-0.61
2018-12-01T20:34:31.730Z,-0.66
2018-12-01T20:37:04.706Z,-0.69
2018-12-01T20:39:37.403Z,-0.70
2018-12-01T20:42:07.338Z,-0.72
2018-12-01T20:44:37.424Z,-0.77
2018-12-01T20:47:07.409Z,-0.80
2018-12-01T20:49:37.601Z,-0.83
2018-12-01T20:52:08.065Z,-0.87
2018-12-01T20:54:42.820Z,-0.92
2018-12-01T20:57:29.147Z,-0.92
2018-12-01T20:59:59.202Z,-0.96
2018-12-01T21:02:29.268Z,-1.02
2018-12-01T21:04:59.425Z,-1.04
2018-12-01T21:07:29.359Z,-1.08
2018-12-01T21:09:59.241Z,-1.09
2018-12-01T21:12:29.122Z,-1.12
2018-12-01T21:14:59.047Z,-1.12
2018-12-01T21:17:28.911Z,-1.11
2018-12-01T21:19:58.813Z,-1.13
2018-12-01T21:22:28.794Z,-1.18
2018-12-01T21:24:58.586Z,-1.19
2018-12-01T21:27:28.463Z,-1.16
2018-12-01T21:29:58.313Z,-1.16
2018-12-01T21:32:28.180Z,-1.17
2018-12-01T21:34:58.062Z,-1.18
2018-12-01T21:37:27.999Z,-1.22
2018-12-01T21:39:57.835Z,-1.19
2018-12-01T21:42:27.791Z,-1.21
2018-12-01T21:44:57.695Z,-1.21
2018-12-01T21:47:27.478Z,-1.26
2018-12-01T21:49:57.253Z,-1.30
2018-12-01T21:52:27.138Z,-1.32
2018-12-01T21:54:57.456Z,-1.34
2018-12-01T21:57:28.100Z,-1.35
2018-12-01T21:59:57.808Z,-1.37
2018-12-01T22:02:28.149Z,-1.37
2018-12-01T22:04:58.827Z,-1.39
2018-12-01T22:07:29.022Z,-1.38
2018-12-01T22:09:58.773Z,-1.39
2018-12-01T22:12:28.549Z,-1.37
2018-12-01T22:14:59.526Z,-1.39
2018-12-01T22:17:29.341Z,-1.42
2018-12-01T22:19:59.204Z,-1.42
2018-12-01T22:22:29.030Z,-1.45
2018-12-01T22:24:59.091Z,-1.47
2018-12-01T22:27:28.888Z,-1.52
2018-12-01T22:29:59.395Z,-1.49
2018-12-01T22:32:30.820Z,-1.52
2018-12-01T22:35:01.072Z,-1.55
2018-12-01T22:37:30.989Z,-1.59
2018-12-01T22:40:01.304Z,-1.63
2018-12-01T22:42:33.959Z,-1.66
2018-12-01T22:45:03.753Z,-1.66
2018-12-01T22:47:34.611Z,-1.70
2018-12-01T22:50:06.377Z,-1.72
2018-12-01T22:52:36.205Z,-1.74
2018-12-01T22:55:08.127Z,-1.73
2018-12-01T22:57:38.258Z,-1.70
2018-12-01T23:00:20.468Z,-1.70
2018-12-01T23:02:51.617Z,-1.71
2018-12-01T23:05:22.161Z,-1.72
2018-12-01T23:07:52.900Z,-1.71
2018-12-01T23:10:23.502Z,-1.70
2018-12-01T23:12:53.798Z,-1.72
2018-12-01T23:15:23.879Z,-1.72
2018-12-01T23:17:54.740Z,-1.73
2018-12-01T23:20:26.312Z,-1.72
2018-12-01T23:22:57.069Z,-1.74
2018-12-01T23:25:26.931Z,-1.83
2018-12-01T23:27:56.781Z,-1.77
2018-12-01T23:30:28.316Z,-1.73
2018-12-01T23:33:00.348Z,-1.79
2018-12-01T23:35:31.528Z,-1.77
2018-12-01T23:38:01.451Z,-1.76
2018-12-01T23:40:33.253Z,-1.72
2018-12-01T23:43:03.410Z,-1.71
2018-12-01T23:45:33.962Z,-1.68
2018-12-01T23:48:04.668Z,-1.69
2018-12-01T23:50:33.725Z,-1.66
2018-12-01T23:53:06.325Z,-1.68
2018-12-01T23:55:36.141Z,-1.65
2018-12-01T23:58:06.156Z,-1.62
